createdAt,value
2017-08-24T00:00:31.168Z,101028.97
2017-08-24T00:02:59.533Z,101028.53
2017-08-24T00:05:27.965Z,101033.36
2017-08-24T00:07:56.334Z,101035.56
2017-08-24T00:10:24.696Z,101034.25
2017-08-24T00:12:53.062Z,101041.23
2017-08-24T00:15:21.424Z,101039.08
2017-08-24T00:17:49.822Z,101039.48
2017-08-24T00:20:18.201Z,101036.87
2017-08-24T00:22:46.559Z,101037.30
2017-08-24T00:25:14.921Z,101030.73
2017-08-24T00:27:43.291Z,101022.41
2017-08-24T00:30:11.650Z,101014.08
2017-08-24T00:32:40.012Z,101014.98
2017-08-24T00:35:08.364Z,101016.27
2017-08-24T00:37:36.719Z,101019.34
2017-08-24T00:40:05.413Z,101023.27
2017-08-24T00:42:33.782Z,101024.16
2017-08-24T00:45:02.136Z,101022.39
2017-08-24T00:47:30.495Z,101018.00
2017-08-24T00:49:58.855Z,101019.78
2017-08-24T00:52:27.220Z,101021.11
2017-08-24T00:54:55.586Z,101021.95
2017-08-24T00:57:23.980Z,101027.67
2017-08-24T00:59:52.331Z,101022.39
2017-08-24T01:02:20.705Z,101017.58
2017-08-24T01:04:48.618Z,101017.16
2017-08-24T01:07:16.536Z,101006.20
2017-08-24T01:09:44.440Z,101007.06
2017-08-24T01:12:12.372Z,101005.73
2017-08-24T01:14:40.280Z,101005.72
2017-08-24T01:17:08.196Z,101008.34
2017-08-24T01:19:36.107Z,101009.63
2017-08-24T01:22:04.042Z,101005.72
2017-08-24T01:24:31.951Z,100999.13
2017-08-24T01:26:59.853Z,101000.44
2017-08-24T01:29:27.776Z,100996.50
2017-08-24T01:31:55.973Z,100990.80
2017-08-24T01:34:24.148Z,100979.42
2017-08-24T01:36:52.062Z,100982.46
2017-08-24T01:39:19.982Z,100981.58
2017-08-24T01:41:47.888Z,100982.00
2017-08-24T01:44:15.795Z,100982.45
2017-08-24T01:46:43.694Z,100988.16
2017-08-24T01:49:11.611Z,100987.28
2017-08-24T01:51:39.831Z,100997.38
2017-08-24T01:54:07.752Z,100996.94
2017-08-24T01:56:35.670Z,100992.95
2017-08-24T01:59:03.912Z,100998.20
2017-08-24T02:01:31.825Z,100999.57
2017-08-24T02:03:59.727Z,100985.09
2017-08-24T02:06:27.646Z,100981.62
2017-08-24T02:08:55.555Z,100990.73
2017-08-24T02:11:23.463Z,100982.43
2017-08-24T02:13:51.373Z,100978.47
2017-08-24T02:16:19.280Z,100981.55
2017-08-24T02:18:47.509Z,100975.84
2017-08-24T02:21:15.425Z,100971.05
2017-08-24T02:23:43.337Z,100970.62
2017-08-24T02:26:11.371Z,100970.56
2017-08-24T02:28:39.270Z,100967.95
2017-08-24T02:31:07.172Z,100953.52
2017-08-24T02:33:35.098Z,100949.55
2017-08-24T02:36:03.012Z,100955.67
2017-08-24T02:38:30.933Z,100945.17
2017-08-24T02:40:58.846Z,100941.23
2017-08-24T02:43:26.769Z,100935.56
2017-08-24T02:45:54.679Z,100932.52
2017-08-24T02:48:22.592Z,100934.24
2017-08-24T02:50:50.494Z,100936.88
2017-08-24T02:53:18.804Z,100933.87
2017-08-24T02:55:46.725Z,100941.30
2017-08-24T02:58:14.649Z,100939.11
2017-08-24T03:00:42.548Z,100937.75
2017-08-24T03:03:10.801Z,100936.38
2017-08-24T03:05:38.757Z,100930.29
2017-08-24T03:08:06.663Z,100935.57
2017-08-24T03:10:34.589Z,100939.91
2017-08-24T03:13:02.497Z,100931.58
2017-08-24T03:15:30.411Z,100932.88
2017-08-24T03:17:58.321Z,100926.73
2017-08-24T03:20:26.315Z,100920.61
2017-08-24T03:22:54.228Z,100920.17
2017-08-24T03:25:22.143Z,100926.76
2017-08-24T03:27:50.045Z,100923.27
2017-08-24T03:30:18.179Z,100921.08
2017-08-24T03:32:46.089Z,100921.11
2017-08-24T03:35:13.996Z,100920.22
2017-08-24T03:37:41.906Z,100923.23
2017-08-24T03:40:09.816Z,100914.02
2017-08-24T03:42:37.732Z,100920.59
2017-08-24T03:45:05.641Z,100910.50
2017-08-24T03:47:33.547Z,100900.44
2017-08-24T03:50:01.453Z,100897.75
2017-08-24T03:52:29.373Z,100909.14
2017-08-24T03:54:57.281Z,100910.91
2017-08-24T03:57:25.200Z,100904.31
2017-08-24T03:59:53.099Z,100912.61
2017-08-24T04:02:21.020Z,100912.17
2017-08-24T04:04:48.938Z,100912.61
2017-08-24T04:07:16.860Z,100895.95
2017-08-24T04:09:44.768Z,100886.73
2017-08-24T04:12:12.868Z,100889.35
2017-08-24T04:14:40.768Z,100888.50
2017-08-24T04:17:08.673Z,100898.20
2017-08-24T04:19:36.920Z,100903.86
2017-08-24T04:22:04.824Z,100898.70
2017-08-24T04:24:32.740Z,100891.73
2017-08-24T04:27:00.653Z,100904.43
2017-08-24T04:29:28.573Z,100897.45
2017-08-24T04:31:56.489Z,100892.67
2017-08-24T04:34:24.865Z,100896.59
2017-08-24T04:36:52.763Z,100894.00
2017-08-24T04:39:20.670Z,100894.47
2017-08-24T04:41:48.585Z,100895.37
2017-08-24T04:44:16.510Z,100895.39
2017-08-24T04:46:44.449Z,100896.73
2017-08-24T04:49:12.760Z,100898.48
2017-08-24T04:51:40.710Z,100896.19
2017-08-24T04:54:08.657Z,100895.57
2017-08-24T04:56:36.571Z,100888.41
2017-08-24T04:59:04.496Z,100889.38
2017-08-24T05:01:32.417Z,100884.39
2017-08-24T05:04:00.342Z,100887.18
2017-08-24T05:06:28.260Z,100897.53
2017-08-24T05:08:56.173Z,100898.05
2017-08-24T05:11:24.236Z,100891.88
2017-08-24T05:13:52.170Z,100881.77
2017-08-24T05:16:20.077Z,100888.23
2017-08-24T05:18:47.993Z,100885.52
2017-08-24T05:21:16.162Z,100879.37
2017-08-24T05:23:44.086Z,100874.06
2017-08-24T05:26:11.987Z,100872.25
2017-08-24T05:28:39.905Z,100873.19
2017-08-24T05:31:07.807Z,100867.31
2017-08-24T05:33:35.810Z,100878.67
2017-08-24T05:36:03.711Z,100878.55
2017-08-24T05:38:31.629Z,100872.58
2017-08-24T05:40:59.559Z,100873.08
2017-08-24T05:43:27.459Z,100872.56
2017-08-24T05:45:55.384Z,100870.59
2017-08-24T05:48:23.292Z,100863.66
2017-08-24T05:50:51.203Z,100867.98
2017-08-24T05:53:19.103Z,100864.08
2017-08-24T05:55:47.201Z,100863.45
2017-08-24T05:58:15.160Z,100870.42
2017-08-24T06:00:43.067Z,100863.26
2017-08-24T06:03:10.990Z,100867.90
2017-08-24T06:05:38.904Z,100869.00
2017-08-24T06:08:06.820Z,100858.92
2017-08-24T06:10:34.719Z,100867.79
2017-08-24T06:13:02.629Z,100858.92
2017-08-24T06:15:30.531Z,100855.43
2017-08-24T06:17:58.456Z,100856.41
2017-08-24T06:20:26.364Z,100851.73
2017-08-24T06:22:54.270Z,100854.04
2017-08-24T06:25:22.184Z,100851.75
2017-08-24T06:27:50.112Z,100853.47
2017-08-24T06:30:18.021Z,100853.91
2017-08-24T06:32:46.130Z,100851.86
2017-08-24T06:35:14.040Z,100857.34
2017-08-24T06:37:41.943Z,100853.68
2017-08-24T06:40:09.855Z,100861.39
2017-08-24T06:42:37.755Z,100866.13
2017-08-24T06:45:05.679Z,100853.52
2017-08-24T06:47:33.583Z,100857.73
2017-08-24T06:50:01.491Z,100850.02
2017-08-24T06:52:29.400Z,100844.39
2017-08-24T06:54:57.324Z,100854.36
2017-08-24T06:57:25.214Z,100843.36
2017-08-24T06:59:53.126Z,100838.14
2017-08-24T07:02:21.035Z,100838.95
2017-08-24T07:04:48.965Z,100844.75
2017-08-24T07:07:16.867Z,100847.03
2017-08-24T07:09:44.794Z,100850.14
2017-08-24T07:12:12.971Z,100848.95
2017-08-24T07:14:40.999Z,100856.63
2017-08-24T07:17:08.921Z,100865.39
2017-08-24T07:19:36.840Z,100851.86
2017-08-24T07:22:04.761Z,100847.72
2017-08-24T07:24:32.659Z,100857.88
2017-08-24T07:27:00.574Z,100851.40
2017-08-24T07:29:28.519Z,100853.73
2017-08-24T07:31:56.641Z,100851.77
2017-08-24T07:34:24.552Z,100847.66
2017-08-24T07:36:52.473Z,100854.66
2017-08-24T07:39:20.381Z,100850.34
2017-08-24T07:41:48.399Z,100851.47
2017-08-24T07:44:16.312Z,100850.32
2017-08-24T07:46:44.215Z,100845.16
2017-08-24T07:49:12.127Z,100838.50
2017-08-24T07:51:40.040Z,100849.92
2017-08-24T07:54:07.956Z,100848.13
2017-08-24T07:56:35.885Z,100839.98
2017-08-24T07:59:03.813Z,100838.31
2017-08-24T08:01:31.719Z,100840.33
2017-08-24T08:03:59.650Z,100841.24
2017-08-24T08:06:27.579Z,100847.69
2017-08-24T08:08:55.795Z,100837.10
2017-08-24T08:11:23.690Z,100837.14
2017-08-24T08:13:51.592Z,100833.53
2017-08-24T08:16:19.499Z,100830.61
2017-08-24T08:18:47.453Z,100839.80
2017-08-24T08:21:15.402Z,100834.61
2017-08-24T08:23:43.446Z,100837.04
2017-08-24T08:26:11.358Z,100837.25
2017-08-24T08:28:39.254Z,100837.83
2017-08-24T08:31:07.175Z,100834.98
2017-08-24T08:33:35.083Z,100825.20
2017-08-24T08:36:03.200Z,100828.75
2017-08-24T08:38:31.105Z,100836.58
2017-08-24T08:40:59.012Z,100834.32
2017-08-24T08:43:26.927Z,100829.99
2017-08-24T08:45:54.869Z,100835.76
2017-08-24T08:48:22.796Z,100829.64
2017-08-24T08:50:50.689Z,100833.32
2017-08-24T08:53:18.608Z,100832.80
2017-08-24T08:55:46.510Z,100822.29
2017-08-24T08:58:14.418Z,100818.00
2017-08-24T09:00:42.328Z,100822.78
2017-08-24T09:03:10.454Z,100821.23
2017-08-24T09:05:38.347Z,100818.73
2017-08-24T09:08:06.265Z,100827.56
2017-08-24T09:10:34.188Z,100825.80
2017-08-24T09:13:02.096Z,100821.98
2017-08-24T09:15:30.102Z,100814.36
2017-08-24T09:17:58.012Z,100823.03
2017-08-24T09:20:25.928Z,100831.66
2017-08-24T09:22:53.836Z,100834.98
2017-08-24T09:25:21.756Z,100828.98
2017-08-24T09:27:49.655Z,100826.84
2017-08-24T09:30:17.558Z,100838.23
2017-08-24T09:32:45.469Z,100839.56
2017-08-24T09:35:13.568Z,100836.79
2017-08-24T09:37:41.480Z,100839.15
2017-08-24T09:40:09.486Z,100847.87
2017-08-24T09:42:37.409Z,100842.03
2017-08-24T09:45:05.306Z,100831.20
2017-08-24T09:47:33.220Z,100837.78
2017-08-24T09:50:01.124Z,100828.85
2017-08-24T09:52:29.036Z,100804.51
2017-08-24T09:54:57.256Z,100809.68
2017-08-24T09:57:25.378Z,100810.98
2017-08-24T09:59:53.297Z,100801.73
2017-08-24T10:02:21.189Z,100780.45
2017-08-24T10:04:49.123Z,100765.51
2017-08-24T10:07:17.069Z,100722.29
2017-08-24T10:09:44.992Z,100691.72
2017-08-24T10:12:13.483Z,100691.56
2017-08-24T10:14:41.408Z,100665.31
2017-08-24T10:17:09.310Z,100654.29
2017-08-24T10:19:37.463Z,100633.08
2017-08-24T10:22:05.641Z,100633.22
2017-08-24T10:24:33.610Z,100666.97
2017-08-24T10:27:01.520Z,100678.02
2017-08-24T10:29:29.513Z,100690.91
2017-08-24T10:31:57.368Z,100713.33
2017-08-24T10:34:25.272Z,100743.38
2017-08-24T10:36:53.193Z,100754.63
2017-08-24T10:39:21.184Z,100760.05
2017-08-24T10:41:49.098Z,100759.77
2017-08-24T10:44:16.998Z,100755.13
2017-08-24T10:46:44.902Z,100755.25
2017-08-24T10:49:12.797Z,100754.79
2017-08-24T10:51:40.712Z,100755.56
2017-08-24T10:54:08.608Z,100749.40
2017-08-24T10:56:36.524Z,100761.91
2017-08-24T10:59:04.428Z,100763.71
2017-08-24T11:01:32.338Z,100770.71
2017-08-24T11:04:00.252Z,100767.55
2017-08-24T11:06:28.181Z,100768.34
2017-08-24T11:08:56.093Z,100766.73
2017-08-24T11:11:23.991Z,100756.62
2017-08-24T11:13:54.168Z,100756.52
2017-08-24T11:16:22.084Z,100756.56
2017-08-24T11:18:49.997Z,100759.47
2017-08-24T11:21:17.902Z,100760.09
2017-08-24T11:23:45.826Z,100763.71
2017-08-24T11:26:13.732Z,100771.45
2017-08-24T11:28:41.642Z,100775.32
2017-08-24T11:31:09.553Z,100774.45
2017-08-24T11:33:37.468Z,100772.66
2017-08-24T11:36:05.385Z,100769.52
2017-08-24T11:38:33.537Z,100773.84
2017-08-24T11:41:01.448Z,100776.80
2017-08-24T11:43:29.353Z,100771.94
2017-08-24T11:45:57.259Z,100768.65
2017-08-24T11:48:25.169Z,100764.25
2017-08-24T11:50:53.075Z,100765.39
2017-08-24T11:53:20.978Z,100758.21
2017-08-24T11:55:48.893Z,100773.67
2017-08-24T11:58:16.802Z,100773.52
2017-08-24T12:00:44.720Z,100778.08
2017-08-24T12:03:12.628Z,100779.03
2017-08-24T12:05:40.560Z,100777.39
2017-08-24T12:08:08.483Z,100787.29
2017-08-24T12:10:36.592Z,100788.19
2017-08-24T12:13:04.486Z,100784.75
2017-08-24T12:15:32.392Z,100784.66
2017-08-24T12:18:00.302Z,100792.11
2017-08-24T12:20:28.202Z,100792.87
2017-08-24T12:22:56.121Z,100797.00
2017-08-24T12:25:24.032Z,100802.37
2017-08-24T12:27:51.965Z,100807.54
2017-08-24T12:30:19.865Z,100806.81
2017-08-24T12:32:47.780Z,100812.34
2017-08-24T12:35:15.691Z,100810.95
2017-08-24T12:37:43.769Z,100810.76
2017-08-24T12:40:11.716Z,100819.94
2017-08-24T12:42:39.624Z,100827.08
2017-08-24T12:45:07.526Z,100825.33
2017-08-24T12:47:35.433Z,100816.79
2017-08-24T12:50:03.356Z,100823.52
2017-08-24T12:52:31.263Z,100821.66
2017-08-24T12:54:59.236Z,100822.55
2017-08-24T12:57:27.176Z,100822.00
2017-08-24T12:59:55.082Z,100825.03
2017-08-24T13:02:22.979Z,100817.72
2017-08-24T13:04:50.891Z,100824.70
2017-08-24T13:07:18.795Z,100826.27
2017-08-24T13:09:46.708Z,100819.77
2017-08-24T13:12:14.620Z,100817.74
2017-08-24T13:14:42.544Z,100817.02
2017-08-24T13:17:10.459Z,100809.76
2017-08-24T13:19:38.363Z,100820.39
2017-08-24T13:22:06.280Z,100810.70
2017-08-24T13:24:34.195Z,100809.51
2017-08-24T13:27:02.108Z,100808.31
2017-08-24T13:29:30.011Z,100806.31
2017-08-24T13:31:57.936Z,100802.63
2017-08-24T13:34:25.834Z,100797.64
2017-08-24T13:36:53.781Z,100793.88
2017-08-24T13:39:21.687Z,100805.12
2017-08-24T13:41:49.731Z,100800.61
2017-08-24T13:44:17.642Z,100799.55
2017-08-24T13:46:45.543Z,100805.70
2017-08-24T13:49:13.460Z,100806.07
2017-08-24T13:51:41.655Z,100806.44
2017-08-24T13:54:09.835Z,100812.56
2017-08-24T13:56:37.753Z,100814.30
2017-08-24T13:59:05.976Z,100812.96
2017-08-24T14:01:33.879Z,100816.66
2017-08-24T14:04:01.790Z,100815.64
2017-08-24T14:06:29.711Z,100815.06
2017-08-24T14:08:57.711Z,100820.77
2017-08-24T14:11:25.636Z,100819.16
2017-08-24T14:13:53.542Z,100823.03
2017-08-24T14:16:21.767Z,100823.63
2017-08-24T14:18:49.676Z,100830.50
2017-08-24T14:21:17.577Z,100832.31
2017-08-24T14:23:45.487Z,100838.05
2017-08-24T14:26:13.400Z,100827.63
2017-08-24T14:28:41.291Z,100820.09
2017-08-24T14:31:09.348Z,100810.98
2017-08-24T14:33:37.243Z,100809.86
2017-08-24T14:36:05.151Z,100814.54
2017-08-24T14:38:33.063Z,100814.12
2017-08-24T14:41:00.972Z,100809.33
2017-08-24T14:43:28.879Z,100809.05
2017-08-24T14:45:56.782Z,100812.66
2017-08-24T14:48:24.691Z,100816.47
2017-08-24T14:50:52.582Z,100815.77
2017-08-24T14:53:20.485Z,100819.04
2017-08-24T14:55:48.474Z,100819.64
2017-08-24T14:58:16.595Z,100814.69
2017-08-24T15:00:44.814Z,100811.94
2017-08-24T15:03:12.714Z,100810.72
2017-08-24T15:05:40.639Z,100814.82
2017-08-24T15:08:08.566Z,100820.31
2017-08-24T15:10:36.702Z,100819.05
2017-08-24T15:13:04.603Z,100817.68
2017-08-24T15:15:32.542Z,100815.95
2017-08-24T15:18:00.463Z,100813.83
2017-08-24T15:20:28.675Z,100821.08
2017-08-24T15:22:56.855Z,100817.67
2017-08-24T15:25:24.876Z,100825.50
2017-08-24T15:27:52.788Z,100822.98
2017-08-24T15:30:20.691Z,100815.42
2017-08-24T15:32:48.594Z,100819.77
2017-08-24T15:35:16.498Z,100813.77
2017-08-24T15:37:44.411Z,100819.23
2017-08-24T15:40:12.311Z,100814.16
2017-08-24T15:42:40.257Z,100821.68
2017-08-24T15:45:08.150Z,100821.66
2017-08-24T15:47:36.069Z,100828.25
2017-08-24T15:50:03.966Z,100819.95
2017-08-24T15:52:31.875Z,100815.95
2017-08-24T15:54:59.787Z,100817.27
2017-08-24T15:57:27.704Z,100811.27
2017-08-24T15:59:55.612Z,100811.22
2017-08-24T16:02:23.524Z,100814.92
2017-08-24T16:04:51.441Z,100809.89
2017-08-24T16:07:19.627Z,100808.73
2017-08-24T16:09:47.540Z,100814.82
2017-08-24T16:12:15.453Z,100819.55
2017-08-24T16:14:43.377Z,100830.55
2017-08-24T16:17:11.291Z,100825.34
2017-08-24T16:19:39.199Z,100824.59
2017-08-24T16:22:07.107Z,100823.06
2017-08-24T16:24:35.014Z,100826.47
2017-08-24T16:27:02.924Z,100829.44
2017-08-24T16:29:30.847Z,100826.70
2017-08-24T16:31:58.998Z,100838.27
2017-08-24T16:34:26.927Z,100835.48
2017-08-24T16:36:54.908Z,100845.17
2017-08-24T16:39:22.969Z,100838.55
2017-08-24T16:41:50.887Z,100836.51
2017-08-24T16:44:18.793Z,100830.65
2017-08-24T16:46:46.694Z,100835.15
2017-08-24T16:49:14.607Z,100832.05
2017-08-24T16:51:42.514Z,100836.70
2017-08-24T16:54:10.418Z,100836.70
2017-08-24T16:56:38.336Z,100842.51
2017-08-24T16:59:06.301Z,100839.81
2017-08-24T17:01:34.225Z,100859.98
2017-08-24T17:04:02.139Z,100860.53
2017-08-24T17:06:30.051Z,100854.45
2017-08-24T17:08:57.969Z,100860.06
2017-08-24T17:11:26.046Z,100857.91
2017-08-24T17:13:53.970Z,100856.31
2017-08-24T17:16:21.872Z,100855.10
2017-08-24T17:18:49.872Z,100847.46
2017-08-24T17:21:17.774Z,100857.16
2017-08-24T17:23:45.674Z,100854.52
2017-08-24T17:26:13.596Z,100847.77
2017-08-24T17:28:41.498Z,100853.66
2017-08-24T17:31:09.403Z,100851.29
2017-08-24T17:33:37.624Z,100861.44
2017-08-24T17:36:05.523Z,100861.10
2017-08-24T17:38:33.629Z,100860.35
2017-08-24T17:41:01.536Z,100867.80
2017-08-24T17:43:29.449Z,100870.95
2017-08-24T17:45:57.363Z,100857.82
2017-08-24T17:48:25.279Z,100866.72
2017-08-24T17:50:53.196Z,100853.09
2017-08-24T17:53:21.105Z,100861.08
2017-08-24T17:55:49.035Z,100863.30
2017-08-24T17:58:16.934Z,100878.20
2017-08-24T18:00:44.853Z,100873.94
2017-08-24T18:03:12.751Z,100871.75
2017-08-24T18:05:41.000Z,100880.52
2017-08-24T18:08:08.896Z,100880.30
2017-08-24T18:10:36.794Z,100876.41
2017-08-24T18:13:04.697Z,100870.80
2017-08-24T18:15:32.603Z,100872.69
2017-08-24T18:18:00.523Z,100869.78
2017-08-24T18:20:28.421Z,100880.61
2017-08-24T18:22:56.341Z,100877.70
2017-08-24T18:25:24.243Z,100874.73
2017-08-24T18:27:52.145Z,100880.95
2017-08-24T18:30:20.056Z,100884.14
2017-08-24T18:32:47.970Z,100886.19
2017-08-24T18:35:15.884Z,100891.91
2017-08-24T18:37:43.987Z,100891.22
2017-08-24T18:40:11.968Z,100891.94
2017-08-24T18:42:39.871Z,100889.59
2017-08-24T18:45:07.775Z,100888.75
2017-08-24T18:47:35.670Z,100884.54
2017-08-24T18:50:03.586Z,100881.48
2017-08-24T18:52:31.492Z,100894.14
2017-08-24T18:54:59.398Z,100888.55
2017-08-24T18:57:27.584Z,100895.91
2017-08-24T18:59:55.706Z,100892.25
2017-08-24T19:02:23.614Z,100892.77
2017-08-24T19:04:51.611Z,100898.95
2017-08-24T19:07:19.513Z,100903.52
2017-08-24T19:09:47.415Z,100902.66
2017-08-24T19:12:15.313Z,100913.45
2017-08-24T19:14:43.221Z,100916.66
2017-08-24T19:17:11.131Z,100915.31
2017-08-24T19:19:39.033Z,100916.75
2017-08-24T19:22:06.945Z,100923.78
2017-08-24T19:24:34.849Z,100925.05
2017-08-24T19:27:03.075Z,100924.14
2017-08-24T19:29:30.968Z,100927.36
2017-08-24T19:31:58.862Z,100931.33
2017-08-24T19:34:26.770Z,100924.58
2017-08-24T19:36:54.691Z,100928.18
2017-08-24T19:39:22.600Z,100925.31
2017-08-24T19:41:50.502Z,100924.31
2017-08-24T19:44:18.572Z,100923.84
2017-08-24T19:46:46.484Z,100922.73
2017-08-24T19:49:14.388Z,100924.05
2017-08-24T19:51:42.311Z,100926.38
2017-08-24T19:54:10.219Z,100924.24
2017-08-24T19:56:38.140Z,100930.02
2017-08-24T19:59:06.029Z,100928.39
2017-08-24T20:01:33.947Z,100927.36
2017-08-24T20:04:01.860Z,100931.20
2017-08-24T20:06:29.771Z,100935.16
2017-08-24T20:08:57.679Z,100936.80
2017-08-24T20:11:25.724Z,100940.18
2017-08-24T20:13:53.636Z,100941.53
2017-08-24T20:16:21.546Z,100939.74
2017-08-24T20:18:49.451Z,100943.48
2017-08-24T20:21:17.355Z,100942.04
2017-08-24T20:23:45.276Z,100944.05
2017-08-24T20:26:13.223Z,100943.53
2017-08-24T20:28:41.151Z,100942.95
2017-08-24T20:31:09.055Z,100950.36
2017-08-24T20:33:36.980Z,100945.42
2017-08-24T20:36:04.884Z,100945.54
2017-08-24T20:38:32.796Z,100950.44
2017-08-24T20:41:00.703Z,100941.30
2017-08-24T20:43:28.911Z,100945.73
2017-08-24T20:45:56.830Z,100944.33
2017-08-24T20:48:24.740Z,100948.83
2017-08-24T20:50:52.656Z,100946.81
2017-08-24T20:53:20.564Z,100951.63
2017-08-24T20:55:48.480Z,100954.54
2017-08-24T20:58:16.389Z,100967.89
2017-08-24T21:00:44.299Z,100970.02
2017-08-24T21:03:12.516Z,100967.27
2017-08-24T21:05:40.436Z,100964.04
2017-08-24T21:08:08.356Z,100970.48
2017-08-24T21:10:36.495Z,100964.45
2017-08-24T21:13:04.400Z,100971.02
2017-08-24T21:15:32.304Z,100970.13
2017-08-24T21:18:00.207Z,100970.80
2017-08-24T21:20:28.978Z,100967.36
2017-08-24T21:22:56.887Z,100973.33
2017-08-24T21:25:24.795Z,100965.27
2017-08-24T21:27:52.704Z,100970.16
2017-08-24T21:30:20.613Z,100971.08
2017-08-24T21:32:48.524Z,100970.89
2017-08-24T21:35:16.421Z,100975.27
2017-08-24T21:37:44.366Z,100976.27
2017-08-24T21:40:12.266Z,100983.41
2017-08-24T21:42:40.607Z,100973.31
2017-08-24T21:45:08.505Z,100971.74
2017-08-24T21:47:36.410Z,100968.27
2017-08-24T21:50:04.310Z,100967.66
2017-08-24T21:52:32.234Z,100961.71
2017-08-24T21:55:00.146Z,100965.80
2017-08-24T21:57:28.044Z,100965.48
2017-08-24T21:59:56.488Z,100966.07
2017-08-24T22:02:24.400Z,100967.22
2017-08-24T22:04:52.673Z,100972.48
2017-08-24T22:07:20.864Z,100976.22
2017-08-24T22:09:48.768Z,100981.57
2017-08-24T22:12:16.717Z,100974.94
2017-08-24T22:14:44.619Z,100979.12
2017-08-24T22:17:12.536Z,100985.19
2017-08-24T22:19:40.435Z,100988.00
2017-08-24T22:22:08.348Z,100978.55
2017-08-24T22:24:36.249Z,100982.44
2017-08-24T22:27:04.141Z,100982.00
2017-08-24T22:29:32.056Z,100982.70
2017-08-24T22:31:59.950Z,100983.44
2017-08-24T22:34:27.858Z,100987.88
2017-08-24T22:36:55.764Z,100987.85
2017-08-24T22:39:23.680Z,100984.32
2017-08-24T22:41:51.579Z,100988.70
2017-08-24T22:44:19.483Z,100985.53
2017-08-24T22:46:47.378Z,100988.29
2017-08-24T22:49:15.301Z,100988.41
2017-08-24T22:51:43.214Z,100981.31
2017-08-24T22:54:16.690Z,100994.12
2017-08-24T22:56:49.979Z,100989.03
2017-08-24T22:59:23.643Z,100990.55
2017-08-24T23:01:57.180Z,101001.70
2017-08-24T23:04:25.227Z,101011.86
2017-08-24T23:06:53.128Z,101004.56
2017-08-24T23:09:21.031Z,101004.33
2017-08-24T23:11:48.933Z,101010.13
2017-08-24T23:14:16.844Z,101004.48
2017-08-24T23:16:44.742Z,101002.69
2017-08-24T23:19:12.652Z,101003.67
2017-08-24T23:21:40.568Z,101003.29
2017-08-24T23:24:08.472Z,101001.05
2017-08-24T23:26:36.383Z,100996.63
2017-08-24T23:29:04.282Z,100997.94
2017-08-24T23:31:32.186Z,101005.06
2017-08-24T23:34:00.103Z,101005.50
2017-08-24T23:36:28.005Z,101006.83
2017-08-24T23:38:55.927Z,101007.67
2017-08-24T23:41:23.828Z,101017.03
2017-08-24T23:43:51.744Z,101006.81
2017-08-24T23:46:19.648Z,101013.55
2017-08-24T23:48:47.563Z,101015.83
2017-08-24T23:51:15.468Z,101028.14
2017-08-24T23:53:43.388Z,101021.67
2017-08-24T23:56:11.293Z,101020.84
2017-08-24T23:58:39.207Z,101029.16
